Beverly, West Virginia
Current Conditions -  °F | °C
As of 10:51 AM on Thursday 18 Dec 2014 (Local Time) from KEKN Reporting Station
Overcast Overcast  
Wind Chill: -8°   Ceiling: 1900
Heat Index: -3°   Visibility: 10mi
Dew Point: -7°   Wind: 8mph
Humidity: 78%   Direction: 280°W
Pressure: 30.18"   Gusts: NA
Location:  38.84°N, 79.88°W
Report Text: KEKN 181551Z AUTO 28007KT 10SM OVC019 M03/M07 A3018 RMK AO2 SNB10E43 SLP247 P0000 T10331067 TSNO
Loading
Personal Weather Stations






























Interactive Weather Map New forecast layout! Learn more

10-Day Weather Forecast

Advertisements
Track Severe Weather on mobile